Destinations Tenerife South Airport

Tenerife South Airport (GCTS / TFS)

Flights to Tenerife South Airport

Flight number From ETE Dispatch
SPY-2208 EGFF Cardiff International Airport 04:05
SPY-2474 EGPH Edinburgh Airport 04:45
SPY-422 EHGG Groningen Airport Eelde 05:15
SPY-4308 EIDW Dublin Airport 04:30

Flights from Tenerife South Airport

Flight number To ETE Dispatch
SPY-2209 EGFF Cardiff International Airport 04:05
SPY-2475 EGPH Edinburgh Airport 04:45
SPY-423 EHGG Groningen Airport Eelde
SPY-4309 EIDW Dublin Airport 04:15
About

Tenerife South Airport facts

Tenerife South Airport is located in Tenerife at an elevation of 63.7 meters or 209 feet.

Currently, Speedy Airlines serves 8 flights to and from Tenerife South Airport.

Detailed airport info

Route map

Weather

Current weather

METAR

METAR

Metar data retrieved Sunday, 21 July 2024 at 19:25 UTC

GCTS 211900Z 07017KT 9999 FEW020 25/19 Q1014 WS R07 NOSIG
Wind Temperature
17 kt 25c